sensor_id;sensor_type;location;lat;lon;timestamp;P1;durP1;ratioP1;P2;durP2;ratioP2
19621;SDS011;9958;33.196;-97.114;2022-08-25T00:02:53;2.85;;;1.88;;
19621;SDS011;9958;33.196;-97.114;2022-08-25T00:08:25;2.40;;;2.20;;
19621;SDS011;9958;33.196;-97.114;2022-08-25T00:10:53;4.30;;;2.00;;
19621;SDS011;9958;33.196;-97.114;2022-08-25T00:13:21;2.20;;;2.08;;
19621;SDS011;9958;33.196;-97.114;2022-08-25T00:15:52;2.22;;;2.03;;
19621;SDS011;9958;33.196;-97.114;2022-08-25T00:18:20;2.72;;;1.98;;
19621;SDS011;9958;33.196;-97.114;2022-08-25T00:20:48;7.13;;;2.25;;
19621;SDS011;9958;33.196;-97.114;2022-08-25T00:23:17;3.85;;;2.50;;
19621;SDS011;9958;33.196;-97.114;2022-08-25T00:25:45;3.15;;;2.17;;
19621;SDS011;9958;33.196;-97.114;2022-08-25T00:28:14;5.35;;;2.47;;
19621;SDS011;9958;33.196;-97.114;2022-08-25T00:30:43;1.92;;;1.83;;
19621;SDS011;9958;33.196;-97.114;2022-08-25T00:33:15;3.28;;;1.80;;
19621;SDS011;9958;33.196;-97.114;2022-08-25T00:35:44;2.50;;;2.15;;
19621;SDS011;9958;33.196;-97.114;2022-08-25T00:38:13;2.17;;;1.98;;
19621;SDS011;9958;33.196;-97.114;2022-08-25T00:40:41;2.28;;;2.13;;
19621;SDS011;9958;33.196;-97.114;2022-08-25T00:43:09;2.22;;;2.03;;
19621;SDS011;9958;33.196;-97.114;2022-08-25T00:45:38;2.83;;;2.47;;
19621;SDS011;9958;33.196;-97.114;2022-08-25T00:48:06;4.45;;;2.33;;
19621;SDS011;9958;33.196;-97.114;2022-08-25T00:50:36;2.22;;;2.03;;
19621;SDS011;9958;33.196;-97.114;2022-08-25T00:53:05;2.95;;;2.10;;
19621;SDS011;9958;33.196;-97.114;2022-08-25T00:55:35;2.10;;;1.98;;
19621;SDS011;9958;33.196;-97.114;2022-08-25T00:58:05;2.72;;;2.00;;
19621;SDS011;9958;33.196;-97.114;2022-08-25T01:03:25;2.30;;;2.10;;
19621;SDS011;9958;33.196;-97.114;2022-08-25T01:05:56;1.83;;;1.73;;
19621;SDS011;9958;33.196;-97.114;2022-08-25T01:08:25;2.83;;;2.28;;
19621;SDS011;9958;33.196;-97.114;2022-08-25T01:10:57;2.97;;;1.90;;
19621;SDS011;9958;33.196;-97.114;2022-08-25T01:13:28;2.53;;;2.20;;
19621;SDS011;9958;33.196;-97.114;2022-08-25T01:15:59;1.95;;;1.77;;
19621;SDS011;9958;33.196;-97.114;2022-08-25T01:18:28;2.25;;;2.05;;
19621;SDS011;9958;33.196;-97.114;2022-08-25T01:21:09;2.65;;;2.08;;
19621;SDS011;9958;33.196;-97.114;2022-08-25T01:23:38;2.05;;;1.90;;
19621;SDS011;9958;33.196;-97.114;2022-08-25T01:26:07;2.05;;;1.85;;
19621;SDS011;9958;33.196;-97.114;2022-08-25T01:31:41;1.85;;;1.75;;
19621;SDS011;9958;33.196;-97.114;2022-08-25T01:34:10;2.50;;;2.30;;
19621;SDS011;9958;33.196;-97.114;2022-08-25T01:36:41;6.18;;;2.38;;
19621;SDS011;9958;33.196;-97.114;2022-08-25T01:39:10;1.85;;;1.75;;
19621;SDS011;9958;33.196;-97.114;2022-08-25T01:42:03;2.13;;;2.03;;
19621;SDS011;9958;33.196;-97.114;2022-08-25T01:44:44;3.05;;;2.45;;
19621;SDS011;9958;33.196;-97.114;2022-08-25T01:47:14;5.00;;;2.28;;
19621;SDS011;9958;33.196;-97.114;2022-08-25T01:49:43;2.50;;;2.30;;
19621;SDS011;9958;33.196;-97.114;2022-08-25T01:52:14;5.40;;;2.08;;
19621;SDS011;9958;33.196;-97.114;2022-08-25T01:54:45;2.72;;;1.92;;
19621;SDS011;9958;33.196;-97.114;2022-08-25T01:57:14;2.55;;;2.35;;
19621;SDS011;9958;33.196;-97.114;2022-08-25T01:59:42;3.55;;;2.08;;
19621;SDS011;9958;33.196;-97.114;2022-08-25T02:02:28;3.45;;;2.17;;
19621;SDS011;9958;33.196;-97.114;2022-08-25T02:05:13;4.38;;;2.40;;
19621;SDS011;9958;33.196;-97.114;2022-08-25T02:08:00;5.25;;;2.65;;
19621;SDS011;9958;33.196;-97.114;2022-08-25T02:10:29;2.28;;;2.08;;
19621;SDS011;9958;33.196;-97.114;2022-08-25T02:13:15;2.60;;;2.40;;
19621;SDS011;9958;33.196;-97.114;2022-08-25T02:15:45;2.22;;;2.10;;
19621;SDS011;9958;33.196;-97.114;2022-08-25T02:18:15;3.72;;;2.17;;
19621;SDS011;9958;33.196;-97.114;2022-08-25T02:20:45;2.40;;;2.20;;
19621;SDS011;9958;33.196;-97.114;2022-08-25T02:23:15;3.72;;;2.10;;
19621;SDS011;9958;33.196;-97.114;2022-08-25T02:26:01;4.88;;;2.60;;
19621;SDS011;9958;33.196;-97.114;2022-08-25T02:28:29;3.85;;;2.38;;
19621;SDS011;9958;33.196;-97.114;2022-08-25T02:30:57;2.63;;;2.20;;
19621;SDS011;9958;33.196;-97.114;2022-08-25T02:33:26;2.60;;;2.40;;
19621;SDS011;9958;33.196;-97.114;2022-08-25T02:35:56;3.85;;;2.30;;
19621;SDS011;9958;33.196;-97.114;2022-08-25T02:38:42;4.53;;;2.15;;
19621;SDS011;9958;33.196;-97.114;2022-08-25T02:41:12;2.65;;;2.40;;
19621;SDS011;9958;33.196;-97.114;2022-08-25T02:43:58;3.72;;;2.40;;
19621;SDS011;9958;33.196;-97.114;2022-08-25T02:46:28;6.68;;;2.40;;
19621;SDS011;9958;33.196;-97.114;2022-08-25T02:48:56;3.03;;;2.45;;
19621;SDS011;9958;33.196;-97.114;2022-08-25T02:51:25;3.42;;;2.53;;
19621;SDS011;9958;33.196;-97.114;2022-08-25T02:53:56;3.63;;;2.78;;
19621;SDS011;9958;33.196;-97.114;2022-08-25T02:56:26;3.28;;;2.60;;
19621;SDS011;9958;33.196;-97.114;2022-08-25T02:59:11;5.85;;;3.10;;
19621;SDS011;9958;33.196;-97.114;2022-08-25T03:01:39;3.70;;;3.15;;
19621;SDS011;9958;33.196;-97.114;2022-08-25T03:04:08;4.50;;;3.10;;
19621;SDS011;9958;33.196;-97.114;2022-08-25T03:06:37;3.08;;;2.75;;
19621;SDS011;9958;33.196;-97.114;2022-08-25T03:09:07;4.93;;;2.95;;
19621;SDS011;9958;33.196;-97.114;2022-08-25T03:11:36;5.80;;;2.90;;
19621;SDS011;9958;33.196;-97.114;2022-08-25T03:14:04;7.68;;;2.70;;
19621;SDS011;9958;33.196;-97.114;2022-08-25T03:16:34;3.40;;;2.78;;
19621;SDS011;9958;33.196;-97.114;2022-08-25T03:19:02;3.88;;;2.85;;
19621;SDS011;9958;33.196;-97.114;2022-08-25T03:21:31;2.97;;;2.70;;
19621;SDS011;9958;33.196;-97.114;2022-08-25T03:23:59;6.15;;;2.65;;
19621;SDS011;9958;33.196;-97.114;2022-08-25T03:29:21;3.00;;;2.70;;
19621;SDS011;9958;33.196;-97.114;2022-08-25T03:34:37;2.40;;;2.20;;
19621;SDS011;9958;33.196;-97.114;2022-08-25T03:37:05;8.02;;;2.65;;
19621;SDS011;9958;33.196;-97.114;2022-08-25T03:39:34;3.33;;;2.65;;
19621;SDS011;9958;33.196;-97.114;2022-08-25T03:42:04;3.35;;;2.70;;
19621;SDS011;9958;33.196;-97.114;2022-08-25T03:44:32;6.80;;;2.50;;
19621;SDS011;9958;33.196;-97.114;2022-08-25T03:47:00;4.95;;;2.40;;
19621;SDS011;9958;33.196;-97.114;2022-08-25T03:49:29;4.13;;;2.17;;
19621;SDS011;9958;33.196;-97.114;2022-08-25T03:51:57;2.50;;;2.17;;
19621;SDS011;9958;33.196;-97.114;2022-08-25T03:54:26;6.40;;;2.60;;
19621;SDS011;9958;33.196;-97.114;2022-08-25T03:59:45;5.50;;;3.03;;
19621;SDS011;9958;33.196;-97.114;2022-08-25T04:02:13;2.92;;;2.60;;
19621;SDS011;9958;33.196;-97.114;2022-08-25T04:04:41;3.67;;;2.50;;
19621;SDS011;9958;33.196;-97.114;2022-08-25T04:07:09;3.03;;;2.72;;
19621;SDS011;9958;33.196;-97.114;2022-08-25T04:09:38;2.55;;;2.35;;
19621;SDS011;9958;33.196;-97.114;2022-08-25T04:12:06;2.72;;;2.25;;
19621;SDS011;9958;33.196;-97.114;2022-08-25T04:14:36;5.15;;;2.10;;
19621;SDS011;9958;33.196;-97.114;2022-08-25T04:17:07;3.58;;;2.38;;
19621;SDS011;9958;33.196;-97.114;2022-08-25T04:19:35;2.70;;;2.45;;
19621;SDS011;9958;33.196;-97.114;2022-08-25T04:22:04;3.13;;;2.53;;
19621;SDS011;9958;33.196;-97.114;2022-08-25T04:24:32;3.42;;;2.33;;
19621;SDS011;9958;33.196;-97.114;2022-08-25T04:27:00;2.88;;;2.63;;
19621;SDS011;9958;33.196;-97.114;2022-08-25T04:29:29;2.85;;;2.58;;
19621;SDS011;9958;33.196;-97.114;2022-08-25T04:32:15;4.43;;;2.60;;
19621;SDS011;9958;33.196;-97.114;2022-08-25T04:34:44;3.13;;;2.85;;
19621;SDS011;9958;33.196;-97.114;2022-08-25T04:37:13;3.00;;;2.70;;
19621;SDS011;9958;33.196;-97.114;2022-08-25T04:39:42;5.88;;;2.50;;
19621;SDS011;9958;33.196;-97.114;2022-08-25T04:44:57;5.65;;;2.70;;
19621;SDS011;9958;33.196;-97.114;2022-08-25T04:47:27;3.53;;;2.60;;
19621;SDS011;9958;33.196;-97.114;2022-08-25T04:49:56;3.13;;;2.72;;
19621;SDS011;9958;33.196;-97.114;2022-08-25T04:52:24;2.83;;;2.63;;
19621;SDS011;9958;33.196;-97.114;2022-08-25T04:54:52;4.93;;;2.88;;
19621;SDS011;9958;33.196;-97.114;2022-08-25T04:57:20;6.45;;;2.70;;
19621;SDS011;9958;33.196;-97.114;2022-08-25T05:02:55;5.72;;;2.78;;
19621;SDS011;9958;33.196;-97.114;2022-08-25T05:05:23;2.53;;;2.33;;
19621;SDS011;9958;33.196;-97.114;2022-08-25T05:07:51;3.83;;;2.88;;
19621;SDS011;9958;33.196;-97.114;2022-08-25T05:10:39;4.47;;;2.90;;
19621;SDS011;9958;33.196;-97.114;2022-08-25T05:13:08;4.00;;;2.55;;
19621;SDS011;9958;33.196;-97.114;2022-08-25T05:15:36;7.50;;;2.65;;
19621;SDS011;9958;33.196;-97.114;2022-08-25T05:18:18;9.32;;;2.90;;
19621;SDS011;9958;33.196;-97.114;2022-08-25T05:20:49;5.22;;;3.13;;
19621;SDS011;9958;33.196;-97.114;2022-08-25T05:23:18;4.95;;;2.53;;
19621;SDS011;9958;33.196;-97.114;2022-08-25T05:25:46;7.03;;;3.13;;
19621;SDS011;9958;33.196;-97.114;2022-08-25T05:28:15;2.85;;;2.55;;
19621;SDS011;9958;33.196;-97.114;2022-08-25T05:30:44;3.38;;;2.88;;
19621;SDS011;9958;33.196;-97.114;2022-08-25T05:33:13;3.40;;;2.95;;
19621;SDS011;9958;33.196;-97.114;2022-08-25T05:35:44;4.10;;;2.97;;
19621;SDS011;9958;33.196;-97.114;2022-08-25T05:38:12;7.03;;;3.17;;
19621;SDS011;9958;33.196;-97.114;2022-08-25T05:40:40;2.85;;;2.60;;
19621;SDS011;9958;33.196;-97.114;2022-08-25T05:43:09;4.53;;;3.47;;
19621;SDS011;9958;33.196;-97.114;2022-08-25T05:45:39;4.35;;;2.88;;
19621;SDS011;9958;33.196;-97.114;2022-08-25T05:48:07;4.05;;;2.97;;
19621;SDS011;9958;33.196;-97.114;2022-08-25T05:50:35;3.42;;;3.00;;
19621;SDS011;9958;33.196;-97.114;2022-08-25T05:53:05;3.80;;;3.03;;
19621;SDS011;9958;33.196;-97.114;2022-08-25T05:55:33;6.47;;;2.78;;
19621;SDS011;9958;33.196;-97.114;2022-08-25T05:58:18;3.10;;;2.53;;
19621;SDS011;9958;33.196;-97.114;2022-08-25T06:00:47;2.97;;;2.75;;
19621;SDS011;9958;33.196;-97.114;2022-08-25T06:03:16;4.60;;;3.08;;
19621;SDS011;9958;33.196;-97.114;2022-08-25T06:05:43;5.82;;;3.20;;
19621;SDS011;9958;33.196;-97.114;2022-08-25T06:08:13;3.03;;;2.80;;
19621;SDS011;9958;33.196;-97.114;2022-08-25T06:10:42;4.28;;;2.95;;
19621;SDS011;9958;33.196;-97.114;2022-08-25T06:13:10;3.50;;;3.20;;
19621;SDS011;9958;33.196;-97.114;2022-08-25T06:15:38;4.55;;;3.05;;
19621;SDS011;9958;33.196;-97.114;2022-08-25T06:18:07;4.10;;;3.47;;
19621;SDS011;9958;33.196;-97.114;2022-08-25T06:20:35;5.45;;;3.88;;
19621;SDS011;9958;33.196;-97.114;2022-08-25T06:23:03;2.70;;;2.50;;
19621;SDS011;9958;33.196;-97.114;2022-08-25T06:25:33;3.80;;;2.53;;
19621;SDS011;9958;33.196;-97.114;2022-08-25T06:30:47;7.38;;;3.35;;
19621;SDS011;9958;33.196;-97.114;2022-08-25T06:33:15;4.75;;;2.80;;
19621;SDS011;9958;33.196;-97.114;2022-08-25T06:36:02;3.35;;;2.92;;
19621;SDS011;9958;33.196;-97.114;2022-08-25T06:38:31;7.07;;;3.03;;
19621;SDS011;9958;33.196;-97.114;2022-08-25T06:41:02;3.78;;;3.20;;
19621;SDS011;9958;33.196;-97.114;2022-08-25T06:43:30;3.55;;;3.08;;
19621;SDS011;9958;33.196;-97.114;2022-08-25T06:46:06;3.30;;;2.80;;
19621;SDS011;9958;33.196;-97.114;2022-08-25T06:48:36;3.45;;;3.00;;
19621;SDS011;9958;33.196;-97.114;2022-08-25T06:51:05;6.70;;;2.60;;
19621;SDS011;9958;33.196;-97.114;2022-08-25T06:53:34;5.55;;;3.03;;
19621;SDS011;9958;33.196;-97.114;2022-08-25T06:56:04;4.35;;;3.05;;
19621;SDS011;9958;33.196;-97.114;2022-08-25T06:58:33;3.75;;;3.15;;
19621;SDS011;9958;33.196;-97.114;2022-08-25T07:01:08;5.25;;;3.05;;
19621;SDS011;9958;33.196;-97.114;2022-08-25T07:03:37;11.80;;;3.10;;
19621;SDS011;9958;33.196;-97.114;2022-08-25T07:06:06;3.83;;;3.35;;
19621;SDS011;9958;33.196;-97.114;2022-08-25T07:08:35;7.47;;;3.25;;
19621;SDS011;9958;33.196;-97.114;2022-08-25T07:11:06;3.13;;;2.85;;
19621;SDS011;9958;33.196;-97.114;2022-08-25T07:13:35;3.17;;;2.63;;
19621;SDS011;9958;33.196;-97.114;2022-08-25T07:16:04;6.10;;;2.92;;
19621;SDS011;9958;33.196;-97.114;2022-08-25T07:18:51;4.72;;;3.47;;
19621;SDS011;9958;33.196;-97.114;2022-08-25T07:21:21;3.42;;;2.95;;
19621;SDS011;9958;33.196;-97.114;2022-08-25T07:23:50;4.93;;;2.92;;
19621;SDS011;9958;33.196;-97.114;2022-08-25T07:26:20;4.25;;;2.90;;
19621;SDS011;9958;33.196;-97.114;2022-08-25T07:28:52;4.22;;;2.83;;
19621;SDS011;9958;33.196;-97.114;2022-08-25T07:31:21;4.05;;;2.80;;
19621;SDS011;9958;33.196;-97.114;2022-08-25T07:33:49;3.53;;;2.97;;
19621;SDS011;9958;33.196;-97.114;2022-08-25T07:36:34;3.45;;;2.70;;
19621;SDS011;9958;33.196;-97.114;2022-08-25T07:39:02;6.22;;;3.65;;
19621;SDS011;9958;33.196;-97.114;2022-08-25T07:41:34;4.88;;;3.00;;
19621;SDS011;9958;33.196;-97.114;2022-08-25T07:44:04;5.25;;;2.95;;
19621;SDS011;9958;33.196;-97.114;2022-08-25T07:46:32;3.17;;;2.88;;
19621;SDS011;9958;33.196;-97.114;2022-08-25T07:49:01;4.07;;;3.03;;
19621;SDS011;9958;33.196;-97.114;2022-08-25T07:51:29;3.70;;;3.28;;
19621;SDS011;9958;33.196;-97.114;2022-08-25T07:53:58;4.45;;;2.92;;
19621;SDS011;9958;33.196;-97.114;2022-08-25T07:56:26;8.80;;;3.55;;
19621;SDS011;9958;33.196;-97.114;2022-08-25T07:58:56;9.18;;;3.83;;
19621;SDS011;9958;33.196;-97.114;2022-08-25T08:01:24;6.22;;;2.55;;
19621;SDS011;9958;33.196;-97.114;2022-08-25T08:03:53;5.13;;;2.92;;
19621;SDS011;9958;33.196;-97.114;2022-08-25T08:06:22;5.93;;;3.10;;
19621;SDS011;9958;33.196;-97.114;2022-08-25T08:09:07;4.07;;;3.20;;
19621;SDS011;9958;33.196;-97.114;2022-08-25T08:11:35;4.35;;;2.95;;
19621;SDS011;9958;33.196;-97.114;2022-08-25T08:14:10;3.90;;;3.20;;
19621;SDS011;9958;33.196;-97.114;2022-08-25T08:16:40;3.40;;;3.10;;
19621;SDS011;9958;33.196;-97.114;2022-08-25T08:19:09;4.35;;;2.97;;
19621;SDS011;9958;33.196;-97.114;2022-08-25T08:21:37;3.97;;;2.90;;
19621;SDS011;9958;33.196;-97.114;2022-08-25T08:24:06;7.55;;;3.25;;
19621;SDS011;9958;33.196;-97.114;2022-08-25T08:26:34;8.10;;;3.00;;
19621;SDS011;9958;33.196;-97.114;2022-08-25T08:29:02;3.10;;;2.80;;
19621;SDS011;9958;33.196;-97.114;2022-08-25T08:34:19;3.22;;;2.90;;
19621;SDS011;9958;33.196;-97.114;2022-08-25T08:36:48;3.80;;;3.35;;
19621;SDS011;9958;33.196;-97.114;2022-08-25T08:39:16;4.90;;;3.40;;
19621;SDS011;9958;33.196;-97.114;2022-08-25T08:41:56;6.93;;;3.17;;
19621;SDS011;9958;33.196;-97.114;2022-08-25T08:44:53;5.40;;;3.10;;
19621;SDS011;9958;33.196;-97.114;2022-08-25T08:47:46;3.13;;;2.83;;
19621;SDS011;9958;33.196;-97.114;2022-08-25T08:50:25;3.70;;;3.38;;
19621;SDS011;9958;33.196;-97.114;2022-08-25T08:52:59;4.07;;;2.97;;
19621;SDS011;9958;33.196;-97.114;2022-08-25T08:55:50;9.85;;;3.55;;
19621;SDS011;9958;33.196;-97.114;2022-08-25T08:58:22;5.88;;;3.30;;
19621;SDS011;9958;33.196;-97.114;2022-08-25T09:00:53;5.93;;;3.40;;
19621;SDS011;9958;33.196;-97.114;2022-08-25T09:03:30;5.25;;;3.15;;
19621;SDS011;9958;33.196;-97.114;2022-08-25T09:06:02;4.72;;;3.17;;
19621;SDS011;9958;33.196;-97.114;2022-08-25T09:08:50;6.03;;;3.88;;
19621;SDS011;9958;33.196;-97.114;2022-08-25T09:11:22;5.30;;;3.20;;
19621;SDS011;9958;33.196;-97.114;2022-08-25T09:14:03;4.30;;;3.35;;
19621;SDS011;9958;33.196;-97.114;2022-08-25T09:16:43;6.75;;;3.67;;
19621;SDS011;9958;33.196;-97.114;2022-08-25T09:19:41;5.70;;;3.40;;
19621;SDS011;9958;33.196;-97.114;2022-08-25T09:22:49;6.22;;;3.30;;
19621;SDS011;9958;33.196;-97.114;2022-08-25T09:25:21;9.85;;;4.10;;
19621;SDS011;9958;33.196;-97.114;2022-08-25T09:27:57;6.68;;;3.22;;
19621;SDS011;9958;33.196;-97.114;2022-08-25T09:30:32;3.55;;;3.25;;
19621;SDS011;9958;33.196;-97.114;2022-08-25T09:33:11;11.02;;;3.67;;
19621;SDS011;9958;33.196;-97.114;2022-08-25T09:36:03;4.35;;;3.45;;
19621;SDS011;9958;33.196;-97.114;2022-08-25T09:38:32;3.95;;;3.45;;
19621;SDS011;9958;33.196;-97.114;2022-08-25T09:41:00;4.70;;;3.88;;
19621;SDS011;9958;33.196;-97.114;2022-08-25T09:43:30;7.13;;;3.55;;
19621;SDS011;9958;33.196;-97.114;2022-08-25T09:46:00;4.93;;;3.38;;
19621;SDS011;9958;33.196;-97.114;2022-08-25T09:48:41;6.97;;;3.30;;
19621;SDS011;9958;33.196;-97.114;2022-08-25T09:51:20;5.13;;;3.22;;
19621;SDS011;9958;33.196;-97.114;2022-08-25T09:53:53;3.58;;;2.88;;
19621;SDS011;9958;33.196;-97.114;2022-08-25T09:56:23;3.50;;;3.20;;
19621;SDS011;9958;33.196;-97.114;2022-08-25T09:58:52;4.45;;;3.47;;
19621;SDS011;9958;33.196;-97.114;2022-08-25T10:01:22;3.67;;;3.30;;
19621;SDS011;9958;33.196;-97.114;2022-08-25T10:03:57;3.92;;;3.30;;
19621;SDS011;9958;33.196;-97.114;2022-08-25T10:06:32;5.30;;;3.85;;
19621;SDS011;9958;33.196;-97.114;2022-08-25T10:09:04;4.70;;;3.35;;
19621;SDS011;9958;33.196;-97.114;2022-08-25T10:14:25;3.75;;;3.45;;
19621;SDS011;9958;33.196;-97.114;2022-08-25T10:17:10;4.35;;;3.38;;
19621;SDS011;9958;33.196;-97.114;2022-08-25T10:19:40;4.53;;;3.80;;
19621;SDS011;9958;33.196;-97.114;2022-08-25T10:22:11;4.18;;;3.28;;
19621;SDS011;9958;33.196;-97.114;2022-08-25T10:24:48;4.90;;;3.35;;
19621;SDS011;9958;33.196;-97.114;2022-08-25T10:27:19;7.72;;;3.50;;
19621;SDS011;9958;33.196;-97.114;2022-08-25T10:29:56;3.70;;;3.33;;
19621;SDS011;9958;33.196;-97.114;2022-08-25T10:32:42;3.42;;;3.13;;
19621;SDS011;9958;33.196;-97.114;2022-08-25T10:35:31;5.85;;;3.03;;
19621;SDS011;9958;33.196;-97.114;2022-08-25T10:38:25;4.40;;;3.42;;
19621;SDS011;9958;33.196;-97.114;2022-08-25T10:41:04;4.90;;;3.33;;
19621;SDS011;9958;33.196;-97.114;2022-08-25T10:43:48;4.30;;;3.30;;
19621;SDS011;9958;33.196;-97.114;2022-08-25T10:46:23;3.78;;;3.33;;
19621;SDS011;9958;33.196;-97.114;2022-08-25T10:48:57;8.00;;;3.58;;
19621;SDS011;9958;33.196;-97.114;2022-08-25T10:51:31;4.35;;;3.80;;
19621;SDS011;9958;33.196;-97.114;2022-08-25T10:54:16;5.47;;;3.63;;
19621;SDS011;9958;33.196;-97.114;2022-08-25T10:57:11;3.67;;;3.38;;
19621;SDS011;9958;33.196;-97.114;2022-08-25T10:59:51;8.18;;;3.75;;
19621;SDS011;9958;33.196;-97.114;2022-08-25T11:02:34;5.15;;;3.75;;
19621;SDS011;9958;33.196;-97.114;2022-08-25T11:05:40;5.40;;;3.42;;
19621;SDS011;9958;33.196;-97.114;2022-08-25T11:08:13;3.92;;;3.53;;
19621;SDS011;9958;33.196;-97.114;2022-08-25T11:10:46;5.40;;;3.35;;
19621;SDS011;9958;33.196;-97.114;2022-08-25T11:13:21;4.75;;;3.65;;
19621;SDS011;9958;33.196;-97.114;2022-08-25T11:15:59;3.85;;;3.13;;
19621;SDS011;9958;33.196;-97.114;2022-08-25T11:18:29;4.90;;;3.65;;
19621;SDS011;9958;33.196;-97.114;2022-08-25T11:21:00;3.92;;;3.42;;
19621;SDS011;9958;33.196;-97.114;2022-08-25T11:23:34;4.10;;;3.70;;
19621;SDS011;9958;33.196;-97.114;2022-08-25T11:26:08;3.88;;;3.40;;
19621;SDS011;9958;33.196;-97.114;2022-08-25T11:28:42;4.03;;;3.30;;
19621;SDS011;9958;33.196;-97.114;2022-08-25T11:31:36;4.07;;;3.67;;
19621;SDS011;9958;33.196;-97.114;2022-08-25T11:34:07;8.20;;;3.60;;
19621;SDS011;9958;33.196;-97.114;2022-08-25T11:36:38;4.30;;;3.25;;
19621;SDS011;9958;33.196;-97.114;2022-08-25T11:39:14;4.90;;;3.20;;
19621;SDS011;9958;33.196;-97.114;2022-08-25T11:41:55;5.18;;;3.60;;
19621;SDS011;9958;33.196;-97.114;2022-08-25T11:44:37;3.97;;;3.45;;
19621;SDS011;9958;33.196;-97.114;2022-08-25T11:47:37;4.40;;;3.25;;
19621;SDS011;9958;33.196;-97.114;2022-08-25T11:53:30;6.05;;;3.90;;
19621;SDS011;9958;33.196;-97.114;2022-08-25T11:56:01;5.75;;;3.70;;
19621;SDS011;9958;33.196;-97.114;2022-08-25T11:58:36;11.15;;;3.92;;
19621;SDS011;9958;33.196;-97.114;2022-08-25T12:04:14;5.63;;;3.45;;
19621;SDS011;9958;33.196;-97.114;2022-08-25T12:15:31;5.53;;;3.35;;
19621;SDS011;9958;33.196;-97.114;2022-08-25T12:21:12;6.47;;;3.42;;
19621;SDS011;9958;33.196;-97.114;2022-08-25T12:26:50;3.28;;;2.97;;
19621;SDS011;9958;33.196;-97.114;2022-08-25T12:29:25;7.68;;;3.42;;
19621;SDS011;9958;33.196;-97.114;2022-08-25T12:32:18;4.57;;;3.47;;
19621;SDS011;9958;33.196;-97.114;2022-08-25T12:35:10;5.13;;;3.83;;
19621;SDS011;9958;33.196;-97.114;2022-08-25T12:37:53;5.43;;;3.97;;
19621;SDS011;9958;33.196;-97.114;2022-08-25T12:40:25;4.05;;;3.45;;
19621;SDS011;9958;33.196;-97.114;2022-08-25T12:45:51;5.65;;;3.95;;
19621;SDS011;9958;33.196;-97.114;2022-08-25T12:48:52;2.80;;;2.60;;
19621;SDS011;9958;33.196;-97.114;2022-08-25T12:51:22;5.43;;;2.97;;
19621;SDS011;9958;33.196;-97.114;2022-08-25T12:53:53;4.75;;;2.70;;
19621;SDS011;9958;33.196;-97.114;2022-08-25T12:56:29;3.63;;;3.15;;
19621;SDS011;9958;33.196;-97.114;2022-08-25T12:59:04;6.45;;;3.10;;
19621;SDS011;9958;33.196;-97.114;2022-08-25T13:08:26;6.22;;;3.63;;
19621;SDS011;9958;33.196;-97.114;2022-08-25T13:11:17;3.95;;;3.25;;
19621;SDS011;9958;33.196;-97.114;2022-08-25T13:13:50;4.55;;;4.10;;
19621;SDS011;9958;33.196;-97.114;2022-08-25T13:16:23;6.95;;;3.70;;
19621;SDS011;9958;33.196;-97.114;2022-08-25T13:18:53;3.60;;;3.22;;
19621;SDS011;9958;33.196;-97.114;2022-08-25T13:21:24;4.20;;;3.28;;
19621;SDS011;9958;33.196;-97.114;2022-08-25T13:23:58;3.40;;;3.10;;
19621;SDS011;9958;33.196;-97.114;2022-08-25T13:26:28;3.35;;;3.00;;
19621;SDS011;9958;33.196;-97.114;2022-08-25T13:28:58;3.10;;;2.80;;
19621;SDS011;9958;33.196;-97.114;2022-08-25T13:31:29;3.05;;;2.75;;
19621;SDS011;9958;33.196;-97.114;2022-08-25T13:33:59;9.15;;;3.55;;
19621;SDS011;9958;33.196;-97.114;2022-08-25T13:36:29;5.35;;;2.90;;
19621;SDS011;9958;33.196;-97.114;2022-08-25T13:39:19;5.72;;;2.90;;
19621;SDS011;9958;33.196;-97.114;2022-08-25T13:41:49;3.10;;;2.80;;
19621;SDS011;9958;33.196;-97.114;2022-08-25T13:44:19;2.97;;;2.70;;
19621;SDS011;9958;33.196;-97.114;2022-08-25T13:47:03;3.55;;;2.72;;
19621;SDS011;9958;33.196;-97.114;2022-08-25T13:52:23;3.70;;;2.45;;
19621;SDS011;9958;33.196;-97.114;2022-08-25T13:54:57;3.80;;;2.75;;
19621;SDS011;9958;33.196;-97.114;2022-08-25T13:57:44;3.75;;;2.80;;
19621;SDS011;9958;33.196;-97.114;2022-08-25T14:00:13;4.18;;;2.70;;
19621;SDS011;9958;33.196;-97.114;2022-08-25T14:02:53;2.35;;;2.15;;
19621;SDS011;9958;33.196;-97.114;2022-08-25T14:05:30;3.67;;;2.45;;
19621;SDS011;9958;33.196;-97.114;2022-08-25T14:08:01;2.33;;;2.13;;
19621;SDS011;9958;33.196;-97.114;2022-08-25T14:10:33;2.40;;;2.25;;
19621;SDS011;9958;33.196;-97.114;2022-08-25T14:13:08;1.90;;;1.80;;
19621;SDS011;9958;33.196;-97.114;2022-08-25T14:15:38;1.80;;;1.70;;
19621;SDS011;9958;33.196;-97.114;2022-08-25T14:18:08;3.08;;;2.05;;
19621;SDS011;9958;33.196;-97.114;2022-08-25T14:20:55;2.10;;;1.90;;
19621;SDS011;9958;33.196;-97.114;2022-08-25T14:23:24;2.10;;;1.90;;
19621;SDS011;9958;33.196;-97.114;2022-08-25T14:25:56;5.13;;;2.28;;
19621;SDS011;9958;33.196;-97.114;2022-08-25T14:28:25;2.30;;;1.90;;
19621;SDS011;9958;33.196;-97.114;2022-08-25T14:30:55;1.90;;;1.80;;
19621;SDS011;9958;33.196;-97.114;2022-08-25T14:33:27;1.55;;;1.45;;
19621;SDS011;9958;33.196;-97.114;2022-08-25T14:35:59;1.85;;;1.75;;
19621;SDS011;9958;33.196;-97.114;2022-08-25T14:41:17;1.90;;;1.80;;
19621;SDS011;9958;33.196;-97.114;2022-08-25T14:43:46;1.92;;;1.73;;
19621;SDS011;9958;33.196;-97.114;2022-08-25T14:46:16;1.70;;;1.60;;
19621;SDS011;9958;33.196;-97.114;2022-08-25T14:48:48;1.70;;;1.60;;
19621;SDS011;9958;33.196;-97.114;2022-08-25T14:51:19;2.15;;;1.92;;
19621;SDS011;9958;33.196;-97.114;2022-08-25T14:53:49;2.22;;;1.80;;
19621;SDS011;9958;33.196;-97.114;2022-08-25T14:56:21;1.77;;;1.67;;
19621;SDS011;9958;33.196;-97.114;2022-08-25T14:58:50;2.00;;;1.90;;
19621;SDS011;9958;33.196;-97.114;2022-08-25T15:01:18;2.97;;;1.80;;
19621;SDS011;9958;33.196;-97.114;2022-08-25T15:03:49;1.95;;;1.85;;
19621;SDS011;9958;33.196;-97.114;2022-08-25T15:06:21;2.53;;;2.03;;
19621;SDS011;9958;33.196;-97.114;2022-08-25T15:08:50;2.30;;;1.85;;
19621;SDS011;9958;33.196;-97.114;2022-08-25T15:14:22;2.35;;;2.15;;
19621;SDS011;9958;33.196;-97.114;2022-08-25T15:16:52;3.65;;;1.80;;
19621;SDS011;9958;33.196;-97.114;2022-08-25T15:19:40;2.00;;;1.85;;
19621;SDS011;9958;33.196;-97.114;2022-08-25T15:22:10;2.00;;;1.80;;
19621;SDS011;9958;33.196;-97.114;2022-08-25T15:24:39;2.30;;;2.10;;
19621;SDS011;9958;33.196;-97.114;2022-08-25T15:27:11;6.03;;;2.40;;
19621;SDS011;9958;33.196;-97.114;2022-08-25T15:29:41;2.00;;;1.90;;
19621;SDS011;9958;33.196;-97.114;2022-08-25T15:32:10;3.35;;;2.60;;
19621;SDS011;9958;33.196;-97.114;2022-08-25T15:34:56;4.05;;;2.00;;
19621;SDS011;9958;33.196;-97.114;2022-08-25T15:37:25;2.33;;;2.13;;
19621;SDS011;9958;33.196;-97.114;2022-08-25T15:39:53;1.88;;;1.77;;
19621;SDS011;9958;33.196;-97.114;2022-08-25T15:42:24;2.05;;;1.95;;
19621;SDS011;9958;33.196;-97.114;2022-08-25T15:44:53;2.25;;;2.03;;
19621;SDS011;9958;33.196;-97.114;2022-08-25T15:47:22;1.70;;;1.60;;
19621;SDS011;9958;33.196;-97.114;2022-08-25T15:50:07;3.20;;;2.10;;
19621;SDS011;9958;33.196;-97.114;2022-08-25T15:52:39;2.33;;;2.08;;
19621;SDS011;9958;33.196;-97.114;2022-08-25T15:55:08;2.55;;;2.35;;
19621;SDS011;9958;33.196;-97.114;2022-08-25T15:57:38;2.30;;;2.20;;
19621;SDS011;9958;33.196;-97.114;2022-08-25T16:02:55;3.55;;;2.13;;
19621;SDS011;9958;33.196;-97.114;2022-08-25T16:05:42;2.83;;;2.33;;
19621;SDS011;9958;33.196;-97.114;2022-08-25T16:08:11;3.60;;;2.53;;
19621;SDS011;9958;33.196;-97.114;2022-08-25T16:10:41;2.67;;;2.50;;
19621;SDS011;9958;33.196;-97.114;2022-08-25T16:13:11;2.72;;;2.53;;
19621;SDS011;9958;33.196;-97.114;2022-08-25T16:15:39;2.28;;;2.08;;
19621;SDS011;9958;33.196;-97.114;2022-08-25T16:20:58;2.75;;;2.55;;
19621;SDS011;9958;33.196;-97.114;2022-08-25T16:23:26;4.20;;;2.50;;
19621;SDS011;9958;33.196;-97.114;2022-08-25T16:25:54;3.33;;;2.80;;